Time;durP1;ratioP1;P1;durP2;ratioP2;P2;SDS_P1;SDS_P2;PMS_P1;PMS_P2;Temp;Humidity;BMP_temperature;BMP_pressure;BME280_temperature;BME280_humidity;BME280_pressure;Samples;Min_cycle;Max_cycle;Signal;HPM_P1;HPM_P2
2023/08/07 00:01:48;;;;;;;3.13;2.00;;;15.50;99.90;;;;;;4983859;28;20267;-68
2023/08/07 00:04:16;;;;;;;3.40;1.70;;;15.40;99.90;;;;;;4988859;28;20209;-67
2023/08/07 00:06:43;;;;;;;1.93;1.80;;;15.50;99.90;;;;;;5000133;28;20211;-68
2023/08/07 00:09:10;;;;;;;2.90;1.80;;;15.50;99.90;;;;;;4998115;28;20197;-67
2023/08/07 00:11:37;;;;;;;2.17;1.97;;;15.40;99.90;;;;;;4991831;28;20201;-68
2023/08/07 00:14:03;;;;;;;2.00;1.80;;;15.40;99.90;;;;;;4994946;28;20201;-68
2023/08/07 00:16:30;;;;;;;1.77;1.63;;;15.40;99.90;;;;;;4977656;28;20267;-68
2023/08/07 00:18:57;;;;;;;4.20;1.80;;;15.40;99.90;;;;;;4980267;28;20201;-68
2023/08/07 00:21:26;;;;;;;2.27;1.43;;;15.40;99.90;;;;;;4990947;28;20360;-68
2023/08/07 00:23:54;;;;;;;1.60;1.50;;;15.40;99.90;;;;;;4995568;28;20196;-67
2023/08/07 00:26:21;;;;;;;2.73;1.60;;;15.40;99.90;;;;;;4990154;28;20212;-68
2023/08/07 00:28:48;;;;;;;2.87;1.67;;;15.40;99.90;;;;;;4987532;28;20209;-68
2023/08/07 00:31:15;;;;;;;3.27;1.63;;;15.40;99.90;;;;;;4989265;28;20200;-68
2023/08/07 00:33:42;;;;;;;2.80;1.50;;;15.40;99.90;;;;;;5002025;28;20543;-68
2023/08/07 00:36:09;;;;;;;2.33;1.63;;;15.40;99.90;;;;;;4982180;28;20213;-68
2023/08/07 00:38:37;;;;;;;5.80;1.50;;;15.40;99.90;;;;;;4997809;28;20208;-68
2023/08/07 00:41:07;;;;;;;3.87;1.60;;;15.40;99.90;;;;;;4989868;28;20212;-68
2023/08/07 00:43:34;;;;;;;2.27;1.67;;;15.30;99.90;;;;;;5002932;28;20204;-68
2023/08/07 00:46:01;;;;;;;4.27;1.40;;;15.30;99.90;;;;;;4986130;28;20227;-68
2023/08/07 00:48:28;;;;;;;1.93;1.70;;;15.30;99.90;;;;;;4976384;28;20209;-68
2023/08/07 00:50:55;;;;;;;2.83;1.70;;;15.30;99.90;;;;;;4977408;28;20200;-67
2023/08/07 00:53:22;;;;;;;1.60;1.50;;;15.30;99.90;;;;;;4981498;28;20842;-69
2023/08/07 00:55:50;;;;;;;2.33;1.50;;;15.20;99.90;;;;;;5000727;28;20259;-69
2023/08/07 00:58:18;;;;;;;3.43;1.30;;;15.20;99.90;;;;;;4998228;28;20197;-69
2023/08/07 01:00:46;;;;;;;1.47;1.37;;;15.20;99.90;;;;;;4988174;28;20221;-69
2023/08/07 01:03:14;;;;;;;1.87;1.70;;;15.30;99.90;;;;;;4965568;28;20206;-69
2023/08/07 01:05:41;;;;;;;1.63;1.53;;;15.20;99.90;;;;;;4990377;28;20582;-69
2023/08/07 01:08:08;;;;;;;1.50;1.40;;;15.20;99.90;;;;;;4999930;28;20785;-69
2023/08/07 01:10:45;;;;;;;1.57;1.47;;;15.20;99.90;;;;;;4991771;28;20201;-69
2023/08/07 01:13:20;;;;;;;2.90;1.60;;;15.20;99.90;;;;;;4978737;28;20208;-69
2023/08/07 01:15:51;;;;;;;3.40;1.53;;;15.10;99.90;;;;;;4988095;28;20282;-69
2023/08/07 01:18:19;;;;;;;3.07;1.90;;;15.10;99.90;;;;;;4984754;28;20227;-69
2023/08/07 01:20:46;;;;;;;3.80;1.60;;;15.10;99.90;;;;;;4981773;28;20216;-69
2023/08/07 01:23:15;;;;;;;3.40;1.80;;;15.00;99.90;;;;;;4987819;28;20898;-69
2023/08/07 01:25:41;;;;;;;3.30;1.37;;;15.10;99.90;;;;;;5009557;28;20224;-69
2023/08/07 01:28:17;;;;;;;2.40;1.57;;;15.00;99.90;;;;;;4988028;28;20209;-68
2023/08/07 01:30:48;;;;;;;2.10;1.40;;;15.00;99.90;;;;;;5000603;28;20193;-69
2023/08/07 01:33:22;;;;;;;3.67;1.50;;;15.00;99.90;;;;;;4984625;28;20217;-67
2023/08/07 01:35:53;;;;;;;5.80;1.60;;;15.00;99.90;;;;;;4985949;28;20323;-67
2023/08/07 01:38:25;;;;;;;1.70;1.57;;;15.00;99.90;;;;;;4987253;28;20193;-68
2023/08/07 01:40:52;;;;;;;2.50;1.37;;;14.90;99.90;;;;;;4973508;28;20275;-67
2023/08/07 01:43:20;;;;;;;2.43;1.50;;;14.90;99.90;;;;;;4976581;28;20208;-68
2023/08/07 01:45:47;;;;;;;4.40;1.40;;;14.90;99.90;;;;;;5002315;28;20217;-67
2023/08/07 01:48:14;;;;;;;1.67;1.40;;;14.90;99.90;;;;;;4970591;28;21124;-67
2023/08/07 01:50:41;;;;;;;2.73;1.57;;;14.90;99.90;;;;;;5000774;28;20193;-67
2023/08/07 01:53:09;;;;;;;2.77;1.40;;;14.90;99.90;;;;;;4986755;28;20192;-68
2023/08/07 01:55:37;;;;;;;4.03;1.50;;;14.90;99.90;;;;;;4999299;28;20221;-68
2023/08/07 01:58:04;;;;;;;1.57;1.47;;;14.80;99.90;;;;;;4974994;28;20689;-68
2023/08/07 02:00:31;;;;;;;3.60;1.77;;;14.80;99.90;;;;;;5004042;28;20676;-68
2023/08/07 02:02:58;;;;;;;2.63;2.00;;;14.80;99.90;;;;;;4991072;28;20209;-68
2023/08/07 02:05:25;;;;;;;1.57;1.47;;;14.80;99.90;;;;;;4986867;28;20377;-67
2023/08/07 02:07:51;;;;;;;1.70;1.50;;;14.70;99.90;;;;;;5000849;28;20196;-68
2023/08/07 02:10:21;;;;;;;2.50;1.50;;;14.70;99.90;;;;;;4986160;28;20200;-68
2023/08/07 02:12:50;;;;;;;5.03;1.80;;;14.70;99.90;;;;;;4996736;28;20286;-68
2023/08/07 02:15:17;;;;;;;2.27;1.57;;;14.70;99.90;;;;;;4965796;28;20306;-68
2023/08/07 02:17:45;;;;;;;3.33;1.63;;;14.70;99.90;;;;;;4989196;28;20567;-68
2023/08/07 02:20:12;;;;;;;2.80;1.80;;;14.60;99.90;;;;;;4980886;28;20205;-68
2023/08/07 02:22:39;;;;;;;2.80;1.30;;;14.60;99.90;;;;;;5001397;28;20253;-68
2023/08/07 02:25:06;;;;;;;3.30;1.73;;;14.60;99.90;;;;;;4978981;28;20934;-68
2023/08/07 02:27:33;;;;;;;2.80;1.47;;;14.50;99.90;;;;;;4990737;28;20203;-68
2023/08/07 02:30:03;;;;;;;6.27;2.13;;;14.50;99.90;;;;;;4988260;28;20673;-68
2023/08/07 02:32:30;;;;;;;1.57;1.47;;;14.50;99.90;;;;;;4998564;28;20189;-68
2023/08/07 02:34:58;;;;;;;3.73;1.57;;;14.50;99.90;;;;;;4971612;28;20220;-68
2023/08/07 02:37:25;;;;;;;3.10;1.40;;;14.50;99.90;;;;;;4981414;28;20201;-68
2023/08/07 02:39:53;;;;;;;2.97;1.47;;;14.50;99.90;;;;;;4991496;28;20735;-67
2023/08/07 02:42:20;;;;;;;2.23;1.40;;;14.50;99.90;;;;;;4999515;28;20232;-68
2023/08/07 02:44:47;;;;;;;2.87;1.37;;;14.50;99.90;;;;;;5003983;28;20312;-68
2023/08/07 02:47:15;;;;;;;1.67;1.27;;;14.50;99.90;;;;;;4994206;28;20208;-68
2023/08/07 02:49:42;;;;;;;5.43;1.60;;;14.50;99.90;;;;;;5003419;28;20857;-68
2023/08/07 02:52:09;;;;;;;2.40;1.57;;;14.50;99.90;;;;;;4975670;28;20193;-68
2023/08/07 02:54:36;;;;;;;1.47;1.37;;;14.50;99.90;;;;;;4998812;28;20252;-68
2023/08/07 02:57:03;;;;;;;2.73;1.60;;;14.50;99.90;;;;;;4987861;28;20287;-68
2023/08/07 02:59:30;;;;;;;2.63;1.50;;;14.50;99.90;;;;;;5004632;28;20283;-68
2023/08/07 03:01:57;;;;;;;2.60;1.60;;;14.50;99.90;;;;;;4979746;28;20209;-68
2023/08/07 03:04:25;;;;;;;2.57;1.50;;;14.50;99.90;;;;;;4983546;28;20208;-68
2023/08/07 03:06:52;;;;;;;2.30;1.40;;;14.50;99.90;;;;;;4979426;28;20208;-67
2023/08/07 03:09:19;;;;;;;3.60;2.10;;;14.60;99.90;;;;;;5002750;28;20195;-68
2023/08/07 03:11:46;;;;;;;1.97;1.40;;;14.60;99.90;;;;;;4997684;28;20197;-68
2023/08/07 03:14:13;;;;;;;2.07;1.50;;;14.60;99.90;;;;;;4997787;28;20185;-68
2023/08/07 03:16:40;;;;;;;4.03;1.60;;;14.60;99.90;;;;;;4995681;28;20204;-68
2023/08/07 03:19:07;;;;;;;1.60;1.50;;;14.70;99.90;;;;;;4979666;28;20494;-68
2023/08/07 03:21:35;;;;;;;2.07;1.40;;;14.70;99.90;;;;;;4982868;28;20215;-68
2023/08/07 03:24:02;;;;;;;1.30;1.20;;;14.70;99.90;;;;;;4980578;28;21589;-70
2023/08/07 03:26:29;;;;;;;3.40;1.40;;;14.70;99.90;;;;;;4987990;28;20712;-68
2023/08/07 03:28:56;;;;;;;1.57;1.40;;;14.70;99.90;;;;;;4968445;28;20201;-68
2023/08/07 03:31:23;;;;;;;4.93;1.50;;;14.70;99.90;;;;;;5001648;28;20305;-68
2023/08/07 03:33:51;;;;;;;3.03;1.40;;;14.80;99.90;;;;;;4981139;28;20205;-68
2023/08/07 03:36:19;;;;;;;2.93;1.43;;;14.80;99.90;;;;;;4981989;28;20217;-68
2023/08/07 03:38:47;;;;;;;3.43;2.10;;;14.80;99.90;;;;;;4961689;28;20223;-67
2023/08/07 03:41:14;;;;;;;4.40;1.93;;;14.80;99.90;;;;;;4981377;28;20224;-68
2023/08/07 03:43:42;;;;;;;4.90;1.70;;;14.80;99.90;;;;;;4983818;28;20562;-68
2023/08/07 03:46:10;;;;;;;1.50;1.40;;;14.90;99.90;;;;;;5000857;28;20267;-68
2023/08/07 03:48:37;;;;;;;3.73;1.80;;;14.80;99.90;;;;;;4992193;28;20572;-68
2023/08/07 03:51:05;;;;;;;1.30;1.20;;;14.90;99.90;;;;;;4986454;28;20471;-68
2023/08/07 03:53:33;;;;;;;2.27;1.37;;;14.80;99.90;;;;;;4983079;28;20254;-68
2023/08/07 03:56:01;;;;;;;1.77;1.60;;;14.80;99.90;;;;;;4987011;28;20227;-68
2023/08/07 03:58:29;;;;;;;1.70;1.57;;;14.80;99.90;;;;;;4992518;28;20624;-68
2023/08/07 04:00:56;;;;;;;2.00;1.60;;;14.80;99.90;;;;;;4994976;28;20203;-68
2023/08/07 04:03:23;;;;;;;2.50;1.57;;;14.80;99.90;;;;;;4982852;28;20619;-68
2023/08/07 04:05:53;;;;;;;2.93;1.50;;;14.90;99.90;;;;;;4991760;28;20223;-68
2023/08/07 04:08:20;;;;;;;3.90;1.60;;;14.90;99.90;;;;;;4985937;28;20633;-68
2023/08/07 04:10:58;;;;;;;2.93;1.97;;;14.80;99.90;;;;;;4975488;28;20201;-68
2023/08/07 04:13:27;;;;;;;2.37;2.00;;;14.80;99.90;;;;;;4986373;28;20194;-68
2023/08/07 04:15:53;;;;;;;3.43;1.60;;;14.80;99.90;;;;;;4997243;28;20561;-68
2023/08/07 04:18:22;;;;;;;5.97;1.97;;;14.80;99.90;;;;;;4985227;28;20204;-68
2023/08/07 04:20:50;;;;;;;2.87;1.80;;;14.90;99.90;;;;;;4975958;28;20301;-68
2023/08/07 04:23:17;;;;;;;3.93;2.00;;;14.90;99.90;;;;;;4989583;28;20291;-68
2023/08/07 04:25:44;;;;;;;3.83;2.10;;;14.90;99.90;;;;;;4971948;28;20990;-68
2023/08/07 04:28:11;;;;;;;3.23;1.97;;;14.90;99.90;;;;;;4977123;28;20288;-68
2023/08/07 04:30:40;;;;;;;3.10;1.60;;;14.90;99.90;;;;;;4986349;28;20239;-68
2023/08/07 04:33:07;;;;;;;5.23;2.20;;;14.90;99.90;;;;;;4996687;28;20204;-68
2023/08/07 04:35:33;;;;;;;4.43;1.90;;;14.90;99.90;;;;;;4994552;28;20225;-68
2023/08/07 04:38:00;;;;;;;5.77;2.30;;;14.90;99.90;;;;;;4990740;28;20208;-68
2023/08/07 04:40:28;;;;;;;5.57;1.70;;;14.90;99.90;;;;;;4976329;28;20189;-68
2023/08/07 04:42:55;;;;;;;3.10;2.00;;;15.00;99.90;;;;;;4981180;28;20224;-68
2023/08/07 04:45:22;;;;;;;4.17;2.10;;;15.00;99.90;;;;;;5002020;28;20266;-68
2023/08/07 04:47:50;;;;;;;4.70;2.20;;;15.00;99.90;;;;;;4993160;28;20912;-68
2023/08/07 04:50:17;;;;;;;4.70;2.37;;;15.00;99.90;;;;;;4989303;28;20200;-68
2023/08/07 04:52:44;;;;;;;1.83;1.57;;;15.10;99.90;;;;;;4989918;28;20193;-69
2023/08/07 04:55:11;;;;;;;7.77;2.00;;;15.10;99.90;;;;;;4996360;28;20212;-68
2023/08/07 04:57:38;;;;;;;5.67;2.30;;;15.10;99.90;;;;;;4967715;28;20673;-68
2023/08/07 05:00:06;;;;;;;3.53;2.00;;;15.10;99.90;;;;;;4996213;28;20204;-68
2023/08/07 05:02:33;;;;;;;4.10;2.00;;;15.20;99.90;;;;;;4982615;28;20220;-68
2023/08/07 05:05:01;;;;;;;5.30;2.00;;;15.20;99.90;;;;;;4995689;28;20227;-68
2023/08/07 05:07:28;;;;;;;7.10;2.00;;;15.30;99.90;;;;;;4993848;28;20189;-68
2023/08/07 05:09:55;;;;;;;2.67;1.83;;;15.30;99.90;;;;;;5001427;28;20542;-68
2023/08/07 05:12:22;;;;;;;8.57;2.33;;;15.30;99.90;;;;;;4981432;28;20205;-68
2023/08/07 05:14:49;;;;;;;4.30;1.83;;;15.40;99.90;;;;;;4990200;28;20327;-68
2023/08/07 05:17:16;;;;;;;4.20;1.67;;;15.40;99.90;;;;;;4993861;28;20208;-68
2023/08/07 05:19:43;;;;;;;6.77;2.33;;;15.40;99.90;;;;;;4988856;28;20205;-68
2023/08/07 05:22:11;;;;;;;9.87;2.33;;;15.50;99.90;;;;;;4994207;28;20504;-67
2023/08/07 05:24:39;;;;;;;8.13;2.27;;;15.50;99.90;;;;;;4975683;28;20224;-68
2023/08/07 05:27:07;;;;;;;3.67;1.90;;;15.60;99.90;;;;;;4976933;28;20228;-68
2023/08/07 05:29:42;;;;;;;7.27;2.00;;;15.60;99.90;;;;;;4993702;28;20204;-68
2023/08/07 05:32:10;;;;;;;6.50;2.10;;;15.60;99.90;;;;;;4994383;28;20249;-67
2023/08/07 05:34:37;;;;;;;4.97;2.10;;;15.60;99.90;;;;;;4995743;28;20229;-68
2023/08/07 05:37:04;;;;;;;5.67;2.10;;;15.70;99.90;;;;;;4996776;28;20299;-68
2023/08/07 05:39:33;;;;;;;6.33;1.90;;;15.70;99.90;;;;;;4979152;28;20708;-68
2023/08/07 05:42:00;;;;;;;3.20;1.43;;;15.80;99.90;;;;;;4985906;28;20216;-68
2023/08/07 05:44:27;;;;;;;5.17;1.97;;;15.80;99.90;;;;;;4991430;28;20197;-68
2023/08/07 05:46:54;;;;;;;6.10;2.13;;;15.80;99.90;;;;;;5005578;28;20518;-68
2023/08/07 05:49:21;;;;;;;6.20;1.53;;;15.90;99.90;;;;;;4987403;28;21069;-68
2023/08/07 05:51:48;;;;;;;4.47;1.77;;;15.90;99.90;;;;;;4992283;28;20251;-68
2023/08/07 05:54:15;;;;;;;4.53;2.10;;;15.90;99.90;;;;;;4990161;28;20407;-68
2023/08/07 05:56:44;;;;;;;5.13;1.70;;;15.90;99.90;;;;;;4996944;28;20283;-68
2023/08/07 05:59:11;;;;;;;4.53;2.00;;;15.90;99.90;;;;;;4965967;28;20221;-68
2023/08/07 06:01:38;;;;;;;3.03;1.77;;;16.00;99.90;;;;;;4993896;28;20200;-68
2023/08/07 06:04:05;;;;;;;6.53;2.00;;;16.00;99.90;;;;;;4989385;28;20916;-68
2023/08/07 06:06:34;;;;;;;8.37;2.07;;;16.00;99.90;;;;;;4991139;28;20267;-67
2023/08/07 06:09:01;;;;;;;5.77;1.90;;;16.00;99.90;;;;;;4990832;28;20205;-68
2023/08/07 06:11:28;;;;;;;6.83;2.03;;;16.00;99.90;;;;;;4994752;28;20611;-68
2023/08/07 06:13:56;;;;;;;6.80;2.30;;;16.00;99.90;;;;;;4956657;28;20382;-68
2023/08/07 06:16:23;;;;;;;6.63;2.00;;;16.10;99.90;;;;;;4985997;28;20287;-68
2023/08/07 06:18:50;;;;;;;5.10;2.00;;;16.10;99.90;;;;;;4994617;28;20259;-68
2023/08/07 06:21:17;;;;;;;9.57;2.43;;;16.10;99.90;;;;;;4990204;28;20282;-68
2023/08/07 06:23:44;;;;;;;10.53;2.00;;;16.10;99.90;;;;;;4988054;28;20225;-68
2023/08/07 06:26:12;;;;;;;6.53;2.20;;;16.10;99.90;;;;;;4991348;28;20232;-68
2023/08/07 06:28:40;;;;;;;5.47;1.80;;;16.10;99.90;;;;;;4969186;28;20205;-67
2023/08/07 06:31:09;;;;;;;11.60;2.80;;;16.10;99.90;;;;;;4979052;28;20259;-68
2023/08/07 06:33:37;;;;;;;5.97;2.03;;;16.10;99.90;;;;;;4980093;28;20204;-68
2023/08/07 06:36:05;;;;;;;10.77;2.53;;;16.10;99.90;;;;;;4991726;28;20442;-68
2023/08/07 06:38:32;;;;;;;5.47;2.67;;;16.20;99.90;;;;;;4992007;28;20189;-68
2023/08/07 06:40:59;;;;;;;8.37;2.30;;;16.20;99.90;;;;;;4991266;28;20217;-68
2023/08/07 06:43:26;;;;;;;4.17;2.33;;;16.20;99.90;;;;;;4989844;28;20212;-68
2023/08/07 06:45:54;;;;;;;7.13;2.50;;;16.20;99.90;;;;;;4979033;28;20289;-67
2023/08/07 06:48:23;;;;;;;9.37;3.00;;;16.20;99.90;;;;;;5002134;28;20289;-67
2023/08/07 06:50:50;;;;;;;8.47;2.23;;;16.30;99.90;;;;;;4989909;28;20471;-67
2023/08/07 06:53:17;;;;;;;11.00;2.73;;;16.30;99.90;;;;;;4994457;28;20200;-67
2023/08/07 06:55:44;;;;;;;7.00;2.63;;;16.30;99.90;;;;;;4992289;28;20239;-68
2023/08/07 06:58:11;;;;;;;6.87;2.70;;;16.30;99.90;;;;;;4989372;28;20205;-66
2023/08/07 07:00:38;;;;;;;8.17;2.23;;;16.30;99.90;;;;;;4978747;28;20336;-69
2023/08/07 07:03:05;;;;;;;10.57;3.30;;;16.40;99.90;;;;;;5000429;28;20295;-67
2023/08/07 07:05:34;;;;;;;12.20;3.23;;;16.40;99.90;;;;;;4999095;28;20596;-68
2023/08/07 07:08:01;;;;;;;7.10;2.90;;;16.40;99.90;;;;;;4995450;28;20212;-67
2023/08/07 07:10:28;;;;;;;11.10;2.70;;;16.40;99.90;;;;;;4978132;28;20201;-68
2023/08/07 07:12:55;;;;;;;7.00;2.83;;;16.40;99.90;;;;;;4987792;28;20208;-67
2023/08/07 07:15:22;;;;;;;9.60;3.27;;;16.50;99.90;;;;;;4975398;28;20216;-68
2023/08/07 07:17:48;;;;;;;10.03;2.70;;;16.50;99.90;;;;;;5005346;28;20203;-67
2023/08/07 07:20:15;;;;;;;8.30;2.47;;;16.60;99.90;;;;;;4990212;28;20202;-68
2023/08/07 07:22:43;;;;;;;10.90;2.87;;;16.60;99.90;;;;;;4982821;28;20616;-67
2023/08/07 07:25:11;;;;;;;13.60;3.70;;;16.60;99.90;;;;;;4974680;28;20228;-68
2023/08/07 07:27:38;;;;;;;9.43;2.93;;;16.50;99.90;;;;;;4996885;28;20202;-68
2023/08/07 07:30:06;;;;;;;8.90;2.83;;;16.50;99.90;;;;;;4965101;28;20213;-68
2023/08/07 07:32:33;;;;;;;8.47;2.60;;;16.50;99.90;;;;;;4995755;28;20213;-68
2023/08/07 07:35:00;;;;;;;6.07;2.83;;;16.40;99.90;;;;;;5003584;28;20216;-68
2023/08/07 07:37:26;;;;;;;7.23;2.93;;;16.40;99.90;;;;;;4988913;28;20316;-69
2023/08/07 07:39:55;;;;;;;9.17;2.73;;;16.30;99.90;;;;;;5003498;28;20855;-68
2023/08/07 07:42:21;;;;;;;7.40;2.60;;;16.30;99.90;;;;;;4994581;28;20284;-68
2023/08/07 07:44:48;;;;;;;11.40;2.60;;;16.30;99.90;;;;;;4980456;28;20224;-68
2023/08/07 07:47:15;;;;;;;6.03;2.27;;;16.40;99.90;;;;;;4989220;28;20464;-68
2023/08/07 07:49:47;;;;;;;8.53;3.23;;;16.40;99.90;;;;;;4997241;28;20197;-68
2023/08/07 07:52:14;;;;;;;11.80;2.90;;;16.40;99.90;;;;;;4974837;28;20849;-68
2023/08/07 07:54:41;;;;;;;8.57;2.73;;;16.50;99.90;;;;;;5003723;28;20216;-68
2023/08/07 07:57:09;;;;;;;7.80;2.73;;;16.60;99.90;;;;;;4987881;28;20255;-68
2023/08/07 07:59:36;;;;;;;7.60;2.90;;;16.60;99.90;;;;;;4990507;28;20214;-68
2023/08/07 08:02:04;;;;;;;6.97;2.80;;;16.70;99.90;;;;;;4970815;28;20212;-67
2023/08/07 08:04:30;;;;;;;9.87;3.13;;;16.70;99.90;;;;;;4994971;28;20212;-69
2023/08/07 08:06:57;;;;;;;6.73;2.67;;;16.60;99.90;;;;;;4981779;28;21178;-68
2023/08/07 08:09:24;;;;;;;11.20;3.00;;;16.60;99.90;;;;;;4998581;28;20669;-68
2023/08/07 08:11:51;;;;;;;11.33;3.00;;;16.50;99.90;;;;;;4993255;28;20224;-67
2023/08/07 08:14:19;;;;;;;6.93;2.33;;;16.50;99.90;;;;;;4994343;28;20263;-68
2023/08/07 08:16:46;;;;;;;8.33;2.80;;;16.40;99.90;;;;;;4970644;28;20270;-67
2023/08/07 08:19:13;;;;;;;8.40;2.87;;;16.20;99.90;;;;;;5002908;28;20207;-68
2023/08/07 08:21:40;;;;;;;3.23;2.00;;;16.10;99.90;;;;;;4982215;28;20689;-67
2023/08/07 08:24:07;;;;;;;9.60;3.10;;;16.10;99.90;;;;;;4985520;28;20220;-67
2023/08/07 08:26:34;;;;;;;12.00;3.47;;;16.20;99.90;;;;;;4997715;28;20213;-67
2023/08/07 08:29:01;;;;;;;13.37;3.10;;;16.30;99.90;;;;;;4986870;28;20213;-67
2023/08/07 08:31:29;;;;;;;15.33;3.60;;;16.40;99.90;;;;;;4976335;28;20205;-68
2023/08/07 08:33:57;;;;;;;13.87;2.80;;;16.50;99.90;;;;;;4985127;28;20520;-67
2023/08/07 08:36:24;;;;;;;11.50;2.90;;;16.50;99.90;;;;;;4992513;28;20974;-68
2023/08/07 08:38:51;;;;;;;8.67;2.87;;;16.40;99.90;;;;;;4994373;28;20314;-67
2023/08/07 08:41:20;;;;;;;9.60;3.07;;;16.40;99.90;;;;;;4997393;28;20924;-68
2023/08/07 08:43:47;;;;;;;8.47;3.67;;;16.40;99.90;;;;;;5001840;28;20271;-68
2023/08/07 08:46:15;;;;;;;11.00;3.43;;;16.30;99.90;;;;;;4984267;28;20601;-68
2023/08/07 08:48:49;;;;;;;10.80;3.03;;;16.30;99.90;;;;;;4999242;28;20209;-67
2023/08/07 08:51:18;;;;;;;9.43;3.60;;;16.20;99.90;;;;;;4965304;28;20207;-68
2023/08/07 08:53:45;;;;;;;7.43;2.83;;;16.20;99.90;;;;;;4992606;28;20195;-68
2023/08/07 08:56:12;;;;;;;11.30;2.87;;;16.20;99.90;;;;;;4998675;28;20220;-69
2023/08/07 08:58:40;;;;;;;10.07;3.50;;;16.20;99.90;;;;;;4994254;28;20239;-68
2023/08/07 09:01:08;;;;;;;9.07;2.73;;;16.00;99.90;;;;;;5000926;28;20208;-68
2023/08/07 09:03:35;;;;;;;12.73;2.83;;;15.90;99.90;;;;;;4987920;28;20835;-68
2023/08/07 09:06:06;;;;;;;11.47;2.57;;;15.90;99.90;;;;;;4999820;28;20294;-68
2023/08/07 09:08:36;;;;;;;9.50;2.90;;;15.90;99.90;;;;;;5004850;28;20905;-68
2023/08/07 09:11:07;;;;;;;7.43;2.67;;;16.00;99.90;;;;;;5002683;28;20680;-67
2023/08/07 09:13:38;;;;;;;12.23;2.90;;;16.00;99.90;;;;;;5001497;28;20297;-67
2023/08/07 09:16:07;;;;;;;10.53;2.77;;;16.20;99.90;;;;;;5004281;28;20220;-67
2023/08/07 09:18:34;;;;;;;8.40;3.40;;;16.30;99.90;;;;;;4981268;28;20323;-66
2023/08/07 09:21:06;;;;;;;13.70;3.10;;;16.50;99.90;;;;;;5005491;28;20200;-66
2023/08/07 09:23:34;;;;;;;16.93;3.63;;;16.70;99.90;;;;;;5001511;28;20623;-67
2023/08/07 09:26:06;;;;;;;11.40;2.90;;;16.80;99.90;;;;;;5001737;28;20220;-67
2023/08/07 09:28:34;;;;;;;7.30;2.47;;;16.90;99.90;;;;;;4988993;28;20192;-67
2023/08/07 09:31:02;;;;;;;8.23;3.10;;;16.80;99.90;;;;;;4994235;28;20291;-68
2023/08/07 09:33:37;;;;;;;9.83;2.73;;;16.80;99.90;;;;;;5001247;28;20271;-68
2023/08/07 09:36:08;;;;;;;4.53;2.47;;;16.70;99.90;;;;;;5008704;28;20708;-67
2023/08/07 09:38:39;;;;;;;8.17;2.67;;;16.70;99.90;;;;;;4992351;28;20201;-67
2023/08/07 09:41:10;;;;;;;10.80;2.80;;;16.70;99.90;;;;;;4997622;28;20271;-67
2023/08/07 09:43:38;;;;;;;7.00;2.47;;;16.70;99.90;;;;;;4999047;28;20205;-66
2023/08/07 09:46:11;;;;;;;9.53;2.60;;;16.80;99.90;;;;;;4993697;28;20231;-67
2023/08/07 09:48:42;;;;;;;6.10;2.80;;;16.80;99.90;;;;;;4999002;28;20806;-69
2023/08/07 09:51:10;;;;;;;8.57;2.63;;;16.90;99.90;;;;;;4998509;28;20193;-66
2023/08/07 09:53:41;;;;;;;8.50;2.80;;;17.00;99.90;;;;;;5000450;28;20239;-67
2023/08/07 09:56:09;;;;;;;10.20;2.63;;;17.20;99.90;;;;;;4989546;28;21491;-67
2023/08/07 09:58:37;;;;;;;8.17;2.40;;;17.40;99.90;;;;;;4992566;28;20209;-67
2023/08/07 10:01:07;;;;;;;12.97;2.70;;;17.50;99.90;;;;;;4986148;28;20515;-67
2023/08/07 10:03:35;;;;;;;9.60;2.63;;;17.50;99.90;;;;;;4993404;28;20212;-67
2023/08/07 10:06:03;;;;;;;6.73;3.00;;;17.50;99.90;;;;;;4978962;28;20232;-67
2023/08/07 10:08:36;;;;;;;5.70;2.50;;;17.60;99.90;;;;;;5007177;28;20212;-68
2023/08/07 10:11:04;;;;;;;6.73;2.57;;;17.70;99.90;;;;;;4978951;28;20787;-67
2023/08/07 10:13:41;;;;;;;8.90;2.70;;;17.70;99.90;;;;;;4990700;28;20217;-67
2023/08/07 10:16:12;;;;;;;11.17;2.47;;;17.70;99.90;;;;;;4994299;28;20382;-67
2023/08/07 10:18:42;;;;;;;9.30;2.80;;;17.70;99.90;;;;;;4975496;28;20203;-67
2023/08/07 10:21:10;;;;;;;6.03;1.97;;;17.80;99.90;;;;;;4984889;28;20302;-69
2023/08/07 10:23:40;;;;;;;8.80;2.77;;;17.90;99.90;;;;;;5004905;28;20216;-67
2023/08/07 10:26:12;;;;;;;6.20;2.23;;;18.00;99.90;;;;;;4996898;28;20220;-68
2023/08/07 10:28:44;;;;;;;7.87;1.97;;;18.10;99.90;;;;;;5005800;28;20216;-66
2023/08/07 10:31:14;;;;;;;6.20;2.20;;;18.20;99.90;;;;;;5005626;28;20247;-67
2023/08/07 10:33:46;;;;;;;9.73;2.67;;;18.10;99.90;;;;;;4986759;28;20205;-66
2023/08/07 10:36:17;;;;;;;8.73;2.27;;;18.00;99.90;;;;;;5003766;28;20700;-67
2023/08/07 10:38:46;;;;;;;6.37;2.50;;;17.90;99.90;;;;;;5004105;28;20211;-66
2023/08/07 10:41:15;;;;;;;21.40;2.80;;;17.80;99.90;;;;;;4996938;28;20213;-67
2023/08/07 10:43:44;;;;;;;12.67;2.93;;;17.80;99.90;;;;;;4991146;28;20235;-66
2023/08/07 10:46:20;;;;;;;10.60;2.90;;;17.80;99.90;;;;;;4999949;28;20818;-67
2023/08/07 10:48:54;;;;;;;8.30;2.63;;;17.90;99.90;;;;;;4990884;28;20250;-67
2023/08/07 10:51:21;;;;;;;7.97;2.13;;;17.70;99.90;;;;;;4988544;28;20572;-68
2023/08/07 10:53:52;;;;;;;4.97;2.37;;;17.70;99.90;;;;;;4999237;28;20220;-67
2023/08/07 10:56:30;;;;;;;6.97;2.20;;;17.70;99.90;;;;;;5002726;28;20208;-67
2023/08/07 10:59:08;;;;;;;7.87;2.27;;;17.70;99.90;;;;;;4998857;28;20322;-67
2023/08/07 11:01:42;;;;;;;8.70;2.33;;;17.70;99.90;;;;;;4994613;28;21041;-67
2023/08/07 11:04:11;;;;;;;10.43;2.70;;;17.90;99.90;;;;;;4992688;28;20212;-67
2023/08/07 11:06:47;;;;;;;4.23;2.03;;;18.00;99.90;;;;;;4982615;28;20989;-68
2023/08/07 11:09:16;;;;;;;9.57;2.43;;;18.20;99.90;;;;;;5003910;28;20285;-67
2023/08/07 11:11:46;;;;;;;8.00;2.60;;;18.10;99.90;;;;;;4996100;28;20200;-67
2023/08/07 11:14:14;;;;;;;8.63;1.97;;;18.10;99.90;;;;;;4974578;28;20252;-66
2023/08/07 11:16:41;;;;;;;6.13;2.23;;;18.20;99.90;;;;;;4938594;28;20202;-67
2023/08/07 11:19:09;;;;;;;7.33;2.07;;;18.10;99.90;;;;;;4932644;28;20233;-68
2023/08/07 11:21:36;;;;;;;9.17;2.30;;;18.00;99.90;;;;;;4941988;28;20278;-67
2023/08/07 11:24:03;;;;;;;7.40;2.57;;;17.90;99.90;;;;;;4964947;28;20242;-66
2023/08/07 11:26:32;;;;;;;8.30;2.20;;;17.80;99.90;;;;;;4959550;28;20237;-67
2023/08/07 11:28:59;;;;;;;7.07;2.43;;;17.90;99.90;;;;;;4957600;28;20264;-67
2023/08/07 11:31:27;;;;;;;6.33;1.50;;;18.10;99.90;;;;;;4956635;28;20206;-66
2023/08/07 11:33:57;;;;;;;8.00;1.93;;;18.20;99.90;;;;;;4962865;28;20202;-67
2023/08/07 11:36:24;;;;;;;3.73;1.90;;;18.30;99.90;;;;;;4951517;28;20239;-66
2023/08/07 11:38:51;;;;;;;3.90;1.80;;;18.40;99.90;;;;;;4956444;28;20703;-67
2023/08/07 11:41:19;;;;;;;5.47;2.30;;;18.40;99.90;;;;;;4960655;28;20455;-67
2023/08/07 11:43:48;;;;;;;9.03;2.33;;;18.40;99.90;;;;;;4953403;28;20213;-67
2023/08/07 11:46:16;;;;;;;11.07;2.10;;;18.30;99.90;;;;;;4960692;28;20222;-67
2023/08/07 11:48:44;;;;;;;6.40;2.63;;;18.30;99.90;;;;;;4964612;28;20202;-67
2023/08/07 11:51:11;;;;;;;7.13;2.13;;;18.20;99.90;;;;;;4945575;28;20601;-67
2023/08/07 11:53:41;;;;;;;5.33;1.20;;;18.00;99.90;;;;;;4953272;28;20681;-68
2023/08/07 11:56:09;;;;;;;5.80;1.20;;;18.00;99.90;;;;;;4969203;28;20267;-68
2023/08/07 11:58:37;;;;;;;5.60;1.90;;;17.90;99.90;;;;;;4958580;28;20289;-68
2023/08/07 12:01:08;;;;;;;4.17;1.30;;;17.90;99.90;;;;;;4959382;28;20214;-67
2023/08/07 12:03:38;;;;;;;7.87;2.30;;;17.90;99.90;;;;;;4961164;28;20296;-67
2023/08/07 12:06:09;;;;;;;6.20;1.73;;;17.80;99.90;;;;;;4959547;28;20268;-67
2023/08/07 12:08:39;;;;;;;5.37;1.80;;;17.70;99.90;;;;;;4941373;28;20218;-68
2023/08/07 12:11:16;;;;;;;4.33;1.57;;;17.60;99.90;;;;;;4960001;28;20194;-67
2023/08/07 12:13:45;;;;;;;5.60;1.57;;;17.50;99.90;;;;;;4955366;28;20212;-67
2023/08/07 12:16:16;;;;;;;3.73;1.70;;;17.60;99.90;;;;;;4965004;28;20217;-67
2023/08/07 12:18:46;;;;;;;5.57;1.57;;;17.50;99.90;;;;;;4961763;28;20209;-68
2023/08/07 12:21:16;;;;;;;12.60;2.73;;;17.60;99.90;;;;;;4945880;28;20225;-68
2023/08/07 12:23:47;;;;;;;4.40;1.47;;;17.60;99.90;;;;;;4960898;28;20210;-67
2023/08/07 12:26:21;;;;;;;5.77;1.43;;;17.70;99.90;;;;;;4950433;28;20811;-68
2023/08/07 12:28:49;;;;;;;5.83;1.40;;;17.60;99.90;;;;;;4968196;28;20201;-68
2023/08/07 12:31:22;;;;;;;3.57;1.30;;;17.50;99.90;;;;;;4944455;28;20225;-69
2023/08/07 12:33:51;;;;;;;4.40;2.03;;;17.40;99.90;;;;;;4959941;28;20218;-68
2023/08/07 12:36:25;;;;;;;6.00;1.77;;;17.30;99.90;;;;;;4963663;28;20746;-68
2023/08/07 12:38:56;;;;;;;8.23;1.90;;;17.20;99.90;;;;;;4953227;28;20264;-68
2023/08/07 12:41:27;;;;;;;3.03;1.30;;;17.20;99.90;;;;;;4951017;28;20666;-67
2023/08/07 12:43:55;;;;;;;4.50;1.70;;;17.30;99.90;;;;;;4971069;28;20225;-67
2023/08/07 12:46:29;;;;;;;6.30;1.57;;;17.50;99.90;;;;;;4944951;28;20256;-69
2023/08/07 12:48:57;;;;;;;7.10;2.23;;;17.70;99.90;;;;;;4958282;28;20201;-67
2023/08/07 12:51:30;;;;;;;6.37;1.80;;;17.70;99.90;;;;;;4976318;28;20619;-67